Time;durP1;ratioP1;P1;durP2;ratioP2;P2;SDS_P1;SDS_P2;PMS_P1;PMS_P2;Temp;Humidity;BMP_temperature;BMP_pressure;BME280_temperature;BME280_humidity;BME280_pressure;Samples;Min_cycle;Max_cycle;Signal;HPM_P1;HPM_P2
2023/08/15 00:00:02;;;;;;;9.67;8.77;;;19.10;99.90;;;;;;5048962;28;20473;-61
2023/08/15 00:02:32;;;;;;;8.27;7.57;;;19.10;99.90;;;;;;5050480;28;20487;-62
2023/08/15 00:05:00;;;;;;;8.10;7.50;;;19.10;99.90;;;;;;5051328;28;20543;-62
2023/08/15 00:07:28;;;;;;;8.43;7.80;;;19.10;99.90;;;;;;5053392;28;20560;-62
2023/08/15 00:09:56;;;;;;;9.40;8.57;;;19.00;99.90;;;;;;5056422;28;20528;-62
2023/08/15 00:12:24;;;;;;;8.43;7.73;;;19.00;99.90;;;;;;5059276;28;20490;-62
2023/08/15 00:14:52;;;;;;;8.67;7.93;;;19.00;99.90;;;;;;5058805;28;20913;-62
2023/08/15 00:17:20;;;;;;;8.50;7.70;;;19.00;99.90;;;;;;5056699;28;20497;-62
2023/08/15 00:19:49;;;;;;;8.50;7.90;;;19.00;99.90;;;;;;5055616;28;20520;-62
2023/08/15 00:22:17;;;;;;;8.70;8.10;;;19.00;99.90;;;;;;5059558;28;20477;-62
2023/08/15 00:24:45;;;;;;;9.17;8.37;;;19.00;99.90;;;;;;5059557;28;20489;-62
2023/08/15 00:27:13;;;;;;;9.60;7.50;;;18.90;99.90;;;;;;5058773;28;20477;-62
2023/08/15 00:29:41;;;;;;;8.80;8.10;;;18.90;99.90;;;;;;5055813;28;20501;-62
2023/08/15 00:32:09;;;;;;;8.80;8.10;;;18.90;99.90;;;;;;5050670;28;22045;-62
2023/08/15 00:34:37;;;;;;;8.43;7.73;;;18.90;99.90;;;;;;5054706;28;20961;-62
2023/08/15 00:37:06;;;;;;;8.97;8.20;;;18.90;99.90;;;;;;5057466;28;20987;-62
2023/08/15 00:39:34;;;;;;;9.50;8.63;;;18.90;99.90;;;;;;5057551;28;20469;-62
2023/08/15 00:42:02;;;;;;;8.67;7.97;;;18.80;99.90;;;;;;5052814;28;21623;-61
2023/08/15 00:44:30;;;;;;;8.93;8.17;;;18.80;99.90;;;;;;5053442;28;20462;-62
2023/08/15 00:46:58;;;;;;;8.57;7.77;;;18.80;99.90;;;;;;5056818;28;20550;-62
2023/08/15 00:49:27;;;;;;;9.43;8.63;;;18.70;99.90;;;;;;5052609;28;20497;-62
2023/08/15 00:51:55;;;;;;;9.03;8.13;;;18.70;99.90;;;;;;5052957;28;20485;-62
2023/08/15 00:54:24;;;;;;;8.80;7.93;;;18.70;99.90;;;;;;5054278;28;20553;-62
2023/08/15 00:56:52;;;;;;;8.63;7.90;;;18.70;99.90;;;;;;5049384;28;20517;-62
2023/08/15 00:59:20;;;;;;;9.57;8.77;;;18.70;99.90;;;;;;5056120;28;20470;-62
2023/08/15 01:01:49;;;;;;;10.80;9.00;;;18.70;99.90;;;;;;5052960;28;21225;-62
2023/08/15 01:04:18;;;;;;;8.73;8.03;;;18.60;99.90;;;;;;5053717;28;20897;-62
2023/08/15 01:06:46;;;;;;;9.43;8.53;;;18.60;99.90;;;;;;5050575;28;21029;-62
2023/08/15 01:09:14;;;;;;;8.30;7.53;;;18.60;99.90;;;;;;5054613;28;20489;-62
2023/08/15 01:11:51;;;;;;;9.30;8.50;;;18.60;99.90;;;;;;5052859;28;20574;-62
2023/08/15 01:14:24;;;;;;;8.70;7.90;;;18.60;99.90;;;;;;5054273;28;20473;-61
2023/08/15 01:16:53;;;;;;;8.67;7.97;;;18.60;99.90;;;;;;5050762;28;21461;-62
2023/08/15 01:19:30;;;;;;;8.43;7.73;;;18.60;99.90;;;;;;5048642;28;20931;-62
2023/08/15 01:22:01;;;;;;;8.53;7.73;;;18.60;99.90;;;;;;5052014;28;20461;-62
2023/08/15 01:24:32;;;;;;;7.63;7.03;;;18.60;99.90;;;;;;5055303;28;21146;-62
2023/08/15 01:27:00;;;;;;;9.30;8.50;;;18.60;99.90;;;;;;5049512;28;20506;-61
2023/08/15 01:29:28;;;;;;;9.07;8.30;;;18.60;99.90;;;;;;5053640;28;20493;-61
2023/08/15 01:32:05;;;;;;;10.20;9.30;;;18.60;99.90;;;;;;5055904;28;20498;-61
2023/08/15 01:34:39;;;;;;;9.80;8.90;;;18.70;99.90;;;;;;5052190;28;20462;-62
2023/08/15 01:37:13;;;;;;;8.70;7.83;;;18.80;99.90;;;;;;5058243;28;20556;-62
2023/08/15 01:39:45;;;;;;;9.73;8.17;;;18.80;99.90;;;;;;5057828;28;20565;-62
2023/08/15 01:42:14;;;;;;;9.70;8.90;;;18.80;99.90;;;;;;5053850;28;20497;-62
2023/08/15 01:44:43;;;;;;;8.97;8.10;;;18.70;99.90;;;;;;5051555;28;20485;-62
2023/08/15 01:47:11;;;;;;;9.10;8.30;;;18.70;99.90;;;;;;5057120;28;20842;-62
2023/08/15 01:49:39;;;;;;;9.07;8.27;;;18.70;99.90;;;;;;5054914;28;21047;-61
2023/08/15 01:52:07;;;;;;;8.17;7.57;;;18.70;99.90;;;;;;5051372;28;20507;-61
2023/08/15 01:54:35;;;;;;;10.00;9.10;;;18.70;99.90;;;;;;5054900;28;20578;-62
2023/08/15 01:57:05;;;;;;;9.40;8.60;;;18.70;99.90;;;;;;5055954;28;21041;-60
2023/08/15 01:59:33;;;;;;;9.13;8.30;;;18.70;99.90;;;;;;5057600;28;20465;-61
2023/08/15 02:02:06;;;;;;;10.13;8.37;;;18.60;99.90;;;;;;5057340;28;20553;-61
2023/08/15 02:04:34;;;;;;;8.83;8.03;;;18.60;99.90;;;;;;5053678;28;20551;-60
2023/08/15 02:07:02;;;;;;;9.33;8.47;;;18.60;99.90;;;;;;5056870;28;20592;-61
2023/08/15 02:09:30;;;;;;;8.93;8.07;;;18.60;99.90;;;;;;5054115;28;20561;-61
2023/08/15 02:11:57;;;;;;;10.33;9.53;;;18.60;99.90;;;;;;5054085;28;20489;-61
2023/08/15 02:14:27;;;;;;;10.23;9.20;;;18.50;99.90;;;;;;5053791;28;20470;-61
2023/08/15 02:16:55;;;;;;;9.57;8.77;;;18.50;99.90;;;;;;5054396;28;20761;-61
2023/08/15 02:19:23;;;;;;;9.43;8.40;;;18.50;99.90;;;;;;5056324;28;20531;-61
2023/08/15 02:21:51;;;;;;;9.60;8.80;;;18.50;99.90;;;;;;5051920;28;20472;-61
2023/08/15 02:24:19;;;;;;;9.93;9.13;;;18.50;99.90;;;;;;5057969;28;20627;-61
2023/08/15 02:26:47;;;;;;;10.03;9.23;;;18.50;99.90;;;;;;5058824;28;20518;-61
2023/08/15 02:29:15;;;;;;;9.50;8.60;;;18.50;99.90;;;;;;5061226;28;20501;-61
2023/08/15 02:31:48;;;;;;;10.40;9.20;;;18.50;99.90;;;;;;5059479;28;20474;-61
2023/08/15 02:34:17;;;;;;;9.47;8.67;;;18.60;99.90;;;;;;5058741;28;20478;-61
2023/08/15 02:36:47;;;;;;;9.23;8.43;;;18.60;99.90;;;;;;5057006;28;20494;-61
2023/08/15 02:39:16;;;;;;;9.30;8.50;;;18.70;99.90;;;;;;5060637;28;20951;-61
2023/08/15 02:41:44;;;;;;;11.60;9.80;;;18.70;99.90;;;;;;5060142;28;20560;-61
2023/08/15 02:44:12;;;;;;;9.67;8.90;;;18.70;99.90;;;;;;5057563;28;20469;-61
2023/08/15 02:46:40;;;;;;;9.73;8.60;;;18.70;99.90;;;;;;5055970;28;20503;-61
2023/08/15 02:49:09;;;;;;;10.43;9.30;;;18.70;99.90;;;;;;5058707;28;20470;-61
2023/08/15 02:51:37;;;;;;;8.60;7.90;;;18.60;99.90;;;;;;5062061;28;20497;-61
2023/08/15 02:54:06;;;;;;;10.03;9.20;;;18.60;99.90;;;;;;5060412;28;20490;-61
2023/08/15 02:56:34;;;;;;;10.30;9.40;;;18.60;99.90;;;;;;5060987;28;21198;-61
2023/08/15 02:59:02;;;;;;;10.23;9.33;;;18.60;99.90;;;;;;5061026;28;21063;-61
2023/08/15 03:01:30;;;;;;;9.33;8.53;;;18.60;99.90;;;;;;5060056;28;20509;-62
2023/08/15 03:03:58;;;;;;;9.33;8.53;;;18.60;99.90;;;;;;5059489;28;20565;-62
2023/08/15 03:06:28;;;;;;;9.90;8.93;;;18.60;99.90;;;;;;5059097;28;20482;-61
2023/08/15 03:08:57;;;;;;;9.87;8.93;;;18.60;99.90;;;;;;5057095;28;20565;-61
2023/08/15 03:11:25;;;;;;;9.50;8.70;;;18.50;99.90;;;;;;5059750;28;20561;-61
2023/08/15 03:13:54;;;;;;;9.87;8.87;;;18.50;99.90;;;;;;5056623;28;20490;-61
2023/08/15 03:16:22;;;;;;;9.40;8.63;;;18.50;99.90;;;;;;5057655;28;20485;-61
2023/08/15 03:18:50;;;;;;;11.63;9.23;;;18.50;99.90;;;;;;5057186;28;20484;-61
2023/08/15 03:21:18;;;;;;;10.87;9.90;;;18.50;99.90;;;;;;5055322;28;20549;-61
2023/08/15 03:23:47;;;;;;;10.37;9.47;;;18.50;99.90;;;;;;5058559;28;20496;-61
2023/08/15 03:26:15;;;;;;;9.93;9.03;;;18.50;99.90;;;;;;5057427;28;20485;-61
2023/08/15 03:28:43;;;;;;;9.47;8.77;;;18.50;99.90;;;;;;5057363;28;20530;-61
2023/08/15 03:31:11;;;;;;;9.67;8.97;;;18.50;99.90;;;;;;5054368;28;20913;-61
2023/08/15 03:33:39;;;;;;;10.27;9.47;;;18.50;99.90;;;;;;5054081;28;20942;-61
2023/08/15 03:36:07;;;;;;;9.67;8.97;;;18.50;99.90;;;;;;5053150;28;20481;-61
2023/08/15 03:38:35;;;;;;;9.80;8.80;;;18.50;99.90;;;;;;5057055;28;20466;-61
2023/08/15 03:41:06;;;;;;;9.47;8.67;;;18.60;99.90;;;;;;5052238;28;20473;-61
2023/08/15 03:43:35;;;;;;;9.60;8.80;;;18.50;99.90;;;;;;5055786;28;20500;-61
2023/08/15 03:46:04;;;;;;;10.53;9.63;;;18.60;99.90;;;;;;5056181;28;20483;-61
2023/08/15 03:48:33;;;;;;;9.90;9.00;;;18.60;99.90;;;;;;5053250;28;20813;-61
2023/08/15 03:51:01;;;;;;;10.63;9.83;;;18.60;99.90;;;;;;5057175;28;20549;-61
2023/08/15 03:53:29;;;;;;;10.47;9.60;;;18.70;99.90;;;;;;5055716;28;20497;-61
2023/08/15 03:55:57;;;;;;;9.87;8.97;;;18.70;99.90;;;;;;5053662;28;20581;-61
2023/08/15 03:58:27;;;;;;;10.10;8.80;;;18.70;99.90;;;;;;5058801;28;20557;-61
2023/08/15 04:00:55;;;;;;;11.20;10.30;;;18.70;99.90;;;;;;5057159;28;21030;-61
2023/08/15 04:03:23;;;;;;;11.27;10.27;;;18.80;99.90;;;;;;5056433;28;20561;-61
2023/08/15 04:05:51;;;;;;;13.47;12.27;;;18.80;99.90;;;;;;5059808;28;20848;-61
2023/08/15 04:08:19;;;;;;;11.70;10.70;;;18.80;99.90;;;;;;5058026;28;20490;-61
2023/08/15 04:10:47;;;;;;;11.27;10.27;;;18.90;99.90;;;;;;5049450;28;20597;-61
2023/08/15 04:13:16;;;;;;;11.47;10.43;;;18.90;99.90;;;;;;5052570;28;20505;-61
2023/08/15 04:15:45;;;;;;;11.80;10.87;;;18.90;99.90;;;;;;5054008;28;20483;-61
2023/08/15 04:18:13;;;;;;;11.13;10.20;;;18.90;99.90;;;;;;5057619;28;20550;-61
2023/08/15 04:20:43;;;;;;;11.30;10.40;;;18.90;99.90;;;;;;5059125;28;20516;-61
2023/08/15 04:23:11;;;;;;;11.83;10.83;;;18.90;99.90;;;;;;5058952;28;20515;-62
2023/08/15 04:25:40;;;;;;;11.63;10.70;;;18.90;99.90;;;;;;5055936;28;20589;-62
2023/08/15 04:28:08;;;;;;;12.87;11.57;;;18.90;99.90;;;;;;5052170;28;20466;-61
2023/08/15 04:30:36;;;;;;;14.20;12.73;;;18.90;99.90;;;;;;5049091;28;20917;-61
2023/08/15 04:33:07;;;;;;;12.77;11.57;;;18.90;99.90;;;;;;5052537;28;20965;-62
2023/08/15 04:35:35;;;;;;;12.43;11.53;;;18.90;99.90;;;;;;5048201;28;20868;-62
2023/08/15 04:38:03;;;;;;;12.83;11.73;;;18.90;99.90;;;;;;5051423;28;20548;-62
2023/08/15 04:40:34;;;;;;;13.20;12.13;;;19.00;99.90;;;;;;5051787;28;20946;-62
2023/08/15 04:43:03;;;;;;;14.23;13.07;;;19.00;99.90;;;;;;5045349;28;20497;-62
2023/08/15 04:45:31;;;;;;;13.27;11.97;;;19.00;99.90;;;;;;5052292;28;20577;-62
2023/08/15 04:47:59;;;;;;;17.33;13.27;;;19.10;99.90;;;;;;5042673;28;20477;-61
2023/08/15 04:50:28;;;;;;;13.77;12.67;;;19.10;99.90;;;;;;5044578;28;20855;-63
2023/08/15 04:52:56;;;;;;;12.60;11.50;;;19.10;99.90;;;;;;5045457;28;20486;-64
2023/08/15 04:55:24;;;;;;;14.60;13.40;;;19.20;99.90;;;;;;5049278;28;20585;-64
2023/08/15 04:57:52;;;;;;;13.67;12.30;;;19.20;99.90;;;;;;5051770;28;20473;-65
2023/08/15 05:00:21;;;;;;;14.37;13.27;;;19.30;99.90;;;;;;5046408;28;21181;-64
2023/08/15 05:02:48;;;;;;;14.13;12.67;;;19.30;99.90;;;;;;5044686;28;20489;-64
2023/08/15 05:05:17;;;;;;;14.23;13.03;;;19.40;99.90;;;;;;5043189;28;20486;-62
2023/08/15 05:07:46;;;;;;;13.93;12.73;;;19.40;99.90;;;;;;5050688;28;20481;-64
2023/08/15 05:10:14;;;;;;;14.50;13.30;;;19.50;99.90;;;;;;5053828;28;20469;-64
2023/08/15 05:12:42;;;;;;;14.37;13.03;;;19.50;99.90;;;;;;5055898;28;20493;-63
2023/08/15 05:15:11;;;;;;;15.03;13.63;;;19.50;99.90;;;;;;5053793;28;20558;-63
2023/08/15 05:17:39;;;;;;;14.80;13.40;;;19.60;99.90;;;;;;5057714;28;20458;-63
2023/08/15 05:20:08;;;;;;;14.33;13.03;;;19.60;99.90;;;;;;5049658;28;20556;-63
2023/08/15 05:22:36;;;;;;;13.63;12.33;;;19.70;99.90;;;;;;5050071;28;20589;-63
2023/08/15 05:25:07;;;;;;;13.93;12.63;;;19.70;99.90;;;;;;5042804;28;20528;-63
2023/08/15 05:27:35;;;;;;;14.23;13.00;;;19.80;99.90;;;;;;5051544;28;20497;-63
2023/08/15 05:30:03;;;;;;;13.70;12.57;;;19.90;99.90;;;;;;5055912;28;21062;-63
2023/08/15 05:32:31;;;;;;;13.00;11.80;;;19.90;99.90;;;;;;5057107;28;20870;-63
2023/08/15 05:34:59;;;;;;;14.43;13.20;;;20.00;99.90;;;;;;5053864;28;20482;-63
2023/08/15 05:37:27;;;;;;;13.43;12.13;;;20.00;99.90;;;;;;5055973;28;21020;-63
2023/08/15 05:39:55;;;;;;;13.50;12.30;;;20.10;99.90;;;;;;5054107;28;20593;-64
2023/08/15 05:42:24;;;;;;;14.80;12.80;;;20.20;99.90;;;;;;5050028;28;20594;-63
2023/08/15 05:44:52;;;;;;;14.50;13.10;;;20.30;99.90;;;;;;5049534;28;21058;-63
2023/08/15 05:47:20;;;;;;;13.13;11.83;;;20.30;99.90;;;;;;5053460;28;20869;-63
2023/08/15 05:49:49;;;;;;;15.40;13.47;;;20.40;99.90;;;;;;5050258;28;20467;-63
2023/08/15 05:52:17;;;;;;;14.00;12.70;;;20.50;99.90;;;;;;5055105;28;20485;-63
2023/08/15 05:54:45;;;;;;;13.83;12.53;;;20.60;99.90;;;;;;5046716;28;20597;-63
2023/08/15 05:57:13;;;;;;;13.93;12.67;;;20.70;99.90;;;;;;5053663;28;20505;-63
2023/08/15 05:59:42;;;;;;;13.27;11.80;;;20.80;99.90;;;;;;5050543;28;20555;-63
2023/08/15 06:02:11;;;;;;;12.13;11.23;;;20.80;99.90;;;;;;5049478;28;20889;-63
2023/08/15 06:04:39;;;;;;;12.27;10.97;;;20.90;99.90;;;;;;5047993;28;20552;-63
2023/08/15 06:07:07;;;;;;;11.40;10.50;;;21.00;99.90;;;;;;5049057;28;20469;-64
2023/08/15 06:09:35;;;;;;;12.73;11.63;;;21.00;99.90;;;;;;5054500;28;20538;-63
2023/08/15 06:12:04;;;;;;;11.20;10.20;;;21.10;99.90;;;;;;5049802;28;20572;-62
2023/08/15 06:14:32;;;;;;;11.80;10.80;;;21.10;99.90;;;;;;5047072;28;20489;-62
2023/08/15 06:17:01;;;;;;;10.97;10.17;;;21.10;99.90;;;;;;5048386;28;21030;-62
2023/08/15 06:19:30;;;;;;;12.20;11.10;;;21.10;99.90;;;;;;5050184;28;20565;-62
2023/08/15 06:21:58;;;;;;;12.03;11.00;;;21.20;99.90;;;;;;5050112;28;20558;-62
2023/08/15 06:24:26;;;;;;;11.67;10.67;;;21.30;99.90;;;;;;5052367;28;20453;-62
2023/08/15 06:26:54;;;;;;;11.50;10.50;;;21.30;99.90;;;;;;5047105;28;21049;-62
2023/08/15 06:29:22;;;;;;;10.53;9.57;;;21.30;99.90;;;;;;5050237;28;21111;-63
2023/08/15 06:31:53;;;;;;;10.53;9.23;;;21.30;99.90;;;;;;5052314;28;20541;-62
2023/08/15 06:34:23;;;;;;;11.73;10.53;;;21.40;99.90;;;;;;5043173;28;20500;-64
2023/08/15 06:36:51;;;;;;;11.77;10.70;;;21.40;99.90;;;;;;5051572;28;20477;-63
2023/08/15 06:39:19;;;;;;;11.23;10.23;;;21.50;99.90;;;;;;5042995;28;20468;-63
2023/08/15 06:41:47;;;;;;;11.17;9.87;;;21.50;99.90;;;;;;5044724;28;20465;-62
2023/08/15 06:44:15;;;;;;;10.20;9.40;;;21.60;99.90;;;;;;5044518;28;20493;-62
2023/08/15 06:46:43;;;;;;;11.33;10.07;;;21.60;99.90;;;;;;5040729;28;20492;-62
2023/08/15 06:49:11;;;;;;;10.70;9.80;;;21.70;99.90;;;;;;5043773;28;20478;-62
2023/08/15 06:51:40;;;;;;;10.57;9.73;;;21.80;99.90;;;;;;5048568;28;20497;-62
2023/08/15 06:54:08;;;;;;;11.17;10.27;;;21.80;99.90;;;;;;5051935;28;20521;-63
2023/08/15 06:56:36;;;;;;;10.53;9.43;;;21.90;99.90;;;;;;5046306;28;21030;-62
2023/08/15 06:59:04;;;;;;;11.37;10.37;;;22.00;99.90;;;;;;5045160;28;20608;-62
2023/08/15 07:01:33;;;;;;;10.77;9.67;;;22.10;99.90;;;;;;5046287;28;20593;-63
2023/08/15 07:04:01;;;;;;;10.63;9.60;;;22.10;99.90;;;;;;5045453;28;20576;-62
2023/08/15 07:06:29;;;;;;;10.97;9.90;;;22.20;99.90;;;;;;5044285;28;20790;-63
2023/08/15 07:08:59;;;;;;;10.30;9.50;;;22.20;99.90;;;;;;5044201;28;20466;-63
2023/08/15 07:11:27;;;;;;;13.10;10.03;;;22.30;99.90;;;;;;5054934;28;20470;-63
2023/08/15 07:13:55;;;;;;;10.67;9.77;;;22.30;99.90;;;;;;5059138;28;20502;-63
2023/08/15 07:16:24;;;;;;;11.07;9.07;;;22.30;99.90;;;;;;5053556;28;20485;-63
2023/08/15 07:18:52;;;;;;;9.53;8.63;;;22.30;99.90;;;;;;5052398;28;20477;-63
2023/08/15 07:21:20;;;;;;;9.00;8.20;;;22.40;99.90;;;;;;5053123;28;20872;-63
2023/08/15 07:23:53;;;;;;;9.87;9.07;;;22.40;99.90;;;;;;5053803;28;20485;-62
2023/08/15 07:26:22;;;;;;;9.27;8.37;;;22.50;99.90;;;;;;5050005;28;20474;-63
2023/08/15 07:28:51;;;;;;;9.33;8.63;;;22.50;99.90;;;;;;5057579;28;20551;-63
2023/08/15 07:31:19;;;;;;;9.13;8.40;;;22.50;99.90;;;;;;5058840;28;20568;-63
2023/08/15 07:33:47;;;;;;;9.10;8.20;;;22.60;99.90;;;;;;5056645;28;20486;-63
2023/08/15 07:36:15;;;;;;;9.37;8.43;;;22.60;99.90;;;;;;5055116;28;20486;-63
2023/08/15 07:38:43;;;;;;;8.97;8.07;;;22.60;99.90;;;;;;5057772;28;20553;-63
2023/08/15 07:41:11;;;;;;;8.63;7.90;;;22.60;99.90;;;;;;5056232;28;20576;-62
2023/08/15 07:43:40;;;;;;;8.30;7.60;;;22.60;99.90;;;;;;5045331;28;20583;-63
2023/08/15 07:46:09;;;;;;;9.43;8.43;;;22.50;99.90;;;;;;5053762;28;20485;-62
2023/08/15 07:48:38;;;;;;;8.60;7.87;;;22.50;99.90;;;;;;5057102;28;20465;-63
2023/08/15 07:51:06;;;;;;;8.90;8.20;;;22.50;99.90;;;;;;5056498;28;20714;-63
2023/08/15 07:53:34;;;;;;;8.60;7.87;;;22.50;99.90;;;;;;5053342;28;20489;-62
2023/08/15 07:56:02;;;;;;;9.37;8.57;;;22.40;99.90;;;;;;5059468;28;20492;-62
2023/08/15 07:58:32;;;;;;;9.50;8.60;;;22.40;99.90;;;;;;5048898;28;20477;-62
2023/08/15 08:01:02;;;;;;;9.23;7.43;;;22.40;99.90;;;;;;5050138;28;20997;-62
2023/08/15 08:03:30;;;;;;;8.40;7.70;;;22.40;99.90;;;;;;5054083;28;20539;-63
2023/08/15 08:05:58;;;;;;;10.43;8.73;;;22.40;99.90;;;;;;5053737;28;20487;-62
2023/08/15 08:08:26;;;;;;;9.57;8.63;;;22.40;99.90;;;;;;5052625;28;20519;-62
2023/08/15 08:10:54;;;;;;;9.00;8.30;;;22.30;99.90;;;;;;5056698;28;20983;-62
2023/08/15 08:13:22;;;;;;;9.47;8.67;;;22.30;99.90;;;;;;5048793;28;20548;-62
2023/08/15 08:15:50;;;;;;;9.80;9.10;;;22.30;99.90;;;;;;5054537;28;20814;-62
2023/08/15 08:18:20;;;;;;;9.43;8.63;;;22.30;99.90;;;;;;5050896;28;20974;-62
2023/08/15 08:20:49;;;;;;;10.77;9.80;;;22.20;99.90;;;;;;5054377;28;21008;-63
2023/08/15 08:23:17;;;;;;;10.00;9.13;;;22.20;99.90;;;;;;5057950;28;20869;-63
2023/08/15 08:25:45;;;;;;;10.73;9.63;;;22.10;99.90;;;;;;5054833;28;21212;-62
2023/08/15 08:28:13;;;;;;;10.00;9.10;;;22.10;99.90;;;;;;5051968;28;20569;-61
2023/08/15 08:30:43;;;;;;;10.23;9.43;;;22.00;99.90;;;;;;5054008;28;20550;-62
2023/08/15 08:33:12;;;;;;;10.40;9.53;;;21.90;99.90;;;;;;5054278;28;20970;-62
2023/08/15 08:35:42;;;;;;;10.47;9.60;;;21.90;99.90;;;;;;5046808;28;21199;-67
2023/08/15 08:38:10;;;;;;;10.57;9.63;;;21.90;99.90;;;;;;5053360;28;20581;-67
2023/08/15 08:40:39;;;;;;;11.40;10.40;;;21.90;99.90;;;;;;5051549;28;20596;-66
2023/08/15 08:43:07;;;;;;;11.27;10.33;;;21.90;99.90;;;;;;5056677;28;20765;-66
2023/08/15 08:45:40;;;;;;;10.73;9.73;;;21.90;99.90;;;;;;5055076;28;20571;-66
2023/08/15 08:48:10;;;;;;;10.30;9.23;;;21.80;99.90;;;;;;5053911;28;21005;-67
2023/08/15 08:50:39;;;;;;;11.17;10.10;;;21.80;99.90;;;;;;5052585;28;20473;-65
2023/08/15 08:53:08;;;;;;;11.03;9.93;;;21.80;99.90;;;;;;5053597;28;20490;-65
2023/08/15 08:55:37;;;;;;;10.60;9.80;;;21.80;99.90;;;;;;5052143;28;20795;-65
2023/08/15 08:58:06;;;;;;;10.30;9.50;;;21.80;99.90;;;;;;5055601;28;20905;-65
2023/08/15 09:00:34;;;;;;;10.70;9.80;;;21.80;99.90;;;;;;5056014;28;20850;-68
2023/08/15 09:03:02;;;;;;;11.53;10.40;;;21.80;99.90;;;;;;5057432;28;20914;-68
2023/08/15 09:05:30;;;;;;;10.80;9.83;;;21.80;99.90;;;;;;5055662;28;20474;-67
2023/08/15 09:07:58;;;;;;;11.83;11.00;;;21.80;99.90;;;;;;5052644;28;20557;-66
2023/08/15 09:10:28;;;;;;;10.60;9.70;;;21.80;99.90;;;;;;5053159;28;20468;-67
2023/08/15 09:13:00;;;;;;;10.77;9.97;;;21.80;99.90;;;;;;5053903;28;20498;-67
2023/08/15 09:15:28;;;;;;;10.20;9.50;;;21.90;99.90;;;;;;5052818;28;20606;-66
2023/08/15 09:18:01;;;;;;;11.17;10.07;;;21.90;99.90;;;;;;5056439;28;21458;-64
2023/08/15 09:20:30;;;;;;;12.40;11.40;;;22.10;99.90;;;;;;5054455;28;20476;-67
2023/08/15 09:22:59;;;;;;;10.43;9.63;;;22.20;99.90;;;;;;5055348;28;20490;-66
2023/08/15 09:25:29;;;;;;;11.73;10.73;;;22.20;99.90;;;;;;5056160;28;20481;-66
2023/08/15 09:27:57;;;;;;;11.43;10.53;;;22.30;99.90;;;;;;5051278;28;20565;-68
2023/08/15 09:30:26;;;;;;;10.90;10.00;;;22.30;99.90;;;;;;5054435;28;20462;-68
2023/08/15 09:32:54;;;;;;;11.47;10.53;;;22.30;99.90;;;;;;5050767;28;20576;-69
2023/08/15 09:35:22;;;;;;;10.10;9.10;;;22.30;99.90;;;;;;5051488;28;20504;-67
2023/08/15 09:37:50;;;;;;;10.10;9.30;;;22.40;99.90;;;;;;5050274;28;20577;-66
2023/08/15 09:40:22;;;;;;;9.63;8.70;;;22.40;99.90;;;;;;5053454;28;20477;-66
2023/08/15 09:42:52;;;;;;;10.20;9.30;;;22.40;99.90;;;;;;5052626;28;20493;-67
2023/08/15 09:45:20;;;;;;;9.50;8.70;;;22.50;99.90;;;;;;5053177;28;21090;-67
2023/08/15 09:47:49;;;;;;;10.37;9.33;;;22.50;99.90;;;;;;5056131;28;20575;-67
2023/08/15 09:50:17;;;;;;;8.57;7.80;;;22.70;99.90;;;;;;5055472;28;20466;-67
2023/08/15 09:52:47;;;;;;;8.20;7.50;;;22.80;99.90;;;;;;5053283;28;20567;-67
2023/08/15 09:55:20;;;;;;;8.00;7.30;;;22.80;99.90;;;;;;5057375;28;20501;-66
2023/08/15 09:57:50;;;;;;;7.47;6.77;;;23.00;99.90;;;;;;5054612;28;20486;-66
2023/08/15 10:00:20;;;;;;;9.60;7.53;;;23.10;99.90;;;;;;5057249;28;20886;-68
2023/08/15 10:02:53;;;;;;;7.77;7.00;;;23.10;99.90;;;;;;5053280;28;20490;-66
2023/08/15 10:05:23;;;;;;;7.60;6.90;;;23.30;99.90;;;;;;5052365;28;20528;-65
2023/08/15 10:07:51;;;;;;;6.77;6.17;;;23.30;99.90;;;;;;5055655;28;20470;-66
2023/08/15 10:10:20;;;;;;;7.80;7.10;;;23.40;99.90;;;;;;5055276;28;20502;-65
2023/08/15 10:12:51;;;;;;;7.50;6.90;;;23.60;99.90;;;;;;5053251;28;21003;-65
2023/08/15 10:15:22;;;;;;;7.30;6.70;;;23.70;99.90;;;;;;5050838;28;20917;-65
2023/08/15 10:17:51;;;;;;;6.60;5.93;;;23.90;99.90;;;;;;5049151;28;20497;-65
2023/08/15 10:20:20;;;;;;;6.53;5.93;;;24.00;99.90;;;;;;5055762;28;20476;-65
2023/08/15 10:22:51;;;;;;;6.77;6.17;;;24.00;99.90;;;;;;5054230;28;20493;-65
2023/08/15 10:25:21;;;;;;;6.33;5.83;;;24.00;99.90;;;;;;5048170;28;20498;-65
2023/08/15 10:27:50;;;;;;;6.37;5.87;;;24.10;99.90;;;;;;5052584;28;20553;-65
2023/08/15 10:30:32;;;;;;;6.03;5.50;;;24.10;99.90;;;;;;5056019;28;20520;-65
2023/08/15 10:33:01;;;;;;;7.77;7.07;;;24.20;99.90;;;;;;5052963;28;20492;-65
2023/08/15 10:35:33;;;;;;;6.53;6.00;;;24.40;99.90;;;;;;5050433;28;20599;-66
2023/08/15 10:38:13;;;;;;;7.33;6.63;;;24.50;99.90;;;;;;5053283;28;20581;-65
2023/08/15 10:40:42;;;;;;;11.20;10.23;;;24.60;99.90;;;;;;5058423;28;20474;-65
2023/08/15 10:43:12;;;;;;;7.70;7.10;;;24.70;99.90;;;;;;5050834;28;20580;-65
2023/08/15 10:45:43;;;;;;;6.83;6.27;;;24.70;99.90;;;;;;5044933;28;20573;-66
2023/08/15 10:48:12;;;;;;;8.50;7.90;;;24.80;99.90;;;;;;5046474;28;20469;-65
2023/08/15 10:50:47;;;;;;;8.47;7.80;;;24.80;99.90;;;;;;5059999;28;20526;-65
2023/08/15 10:53:15;;;;;;;8.43;7.63;;;24.70;99.90;;;;;;5055109;28;20493;-66
2023/08/15 10:55:47;;;;;;;13.20;12.30;;;24.60;99.90;;;;;;5057646;28;20481;-65
2023/08/15 10:58:17;;;;;;;7.03;6.60;;;24.60;99.90;;;;;;5054217;28;20547;-65
2023/08/15 11:00:47;;;;;;;7.00;6.50;;;24.60;99.90;;;;;;5056650;28;20560;-65
2023/08/15 11:03:15;;;;;;;9.63;8.93;;;24.70;99.90;;;;;;5059793;28;20762;-65
2023/08/15 11:05:43;;;;;;;10.10;9.37;;;24.70;99.90;;;;;;5056418;28;20482;-66
2023/08/15 11:08:16;;;;;;;10.90;10.00;;;24.70;99.90;;;;;;5061063;28;20553;-65
2023/08/15 11:10:45;;;;;;;8.70;8.00;;;24.60;99.90;;;;;;5058539;28;20979;-66
2023/08/15 11:13:13;;;;;;;9.53;8.93;;;24.50;99.90;;;;;;5057690;28;20584;-63
2023/08/15 11:15:41;;;;;;;11.57;10.70;;;24.50;99.90;;;;;;5051425;28;20513;-63
2023/08/15 11:18:11;;;;;;;10.30;9.40;;;24.60;99.90;;;;;;5055372;28;20899;-63
2023/08/15 11:20:39;;;;;;;9.40;8.80;;;24.70;99.90;;;;;;5053393;28;20544;-63
2023/08/15 11:23:07;;;;;;;10.50;9.77;;;24.80;99.90;;;;;;5050479;28;20880;-63
2023/08/15 11:25:35;;;;;;;9.50;8.70;;;24.90;99.90;;;;;;5054379;28;22047;-63
2023/08/15 11:28:06;;;;;;;9.13;8.53;;;25.00;99.90;;;;;;5046825;28;20474;-65
2023/08/15 11:30:35;;;;;;;9.70;9.00;;;25.20;99.90;;;;;;5045403;28;20474;-64
2023/08/15 11:33:04;;;;;;;9.43;8.73;;;25.40;99.90;;;;;;5053166;28;20585;-63
2023/08/15 11:35:33;;;;;;;9.67;8.60;;;25.50;99.90;;;;;;5060238;28;20554;-64
2023/08/15 11:38:01;;;;;;;10.27;9.40;;;25.60;99.90;;;;;;5061311;28;21050;-61
2023/08/15 11:40:30;;;;;;;9.17;8.60;;;25.80;99.90;;;;;;5058063;28;20465;-64
2023/08/15 11:42:59;;;;;;;10.20;9.50;;;26.00;99.90;;;;;;5059669;28;20501;-61
2023/08/15 11:45:27;;;;;;;9.20;8.60;;;26.10;99.90;;;;;;5047784;28;21018;-62
2023/08/15 11:47:57;;;;;;;8.13;7.53;;;26.10;99.90;;;;;;5058879;28;20462;-62
2023/08/15 11:50:26;;;;;;;8.70;8.00;;;26.10;99.90;;;;;;5058460;28;20478;-62
2023/08/15 11:53:14;;;;;;;9.00;8.33;;;26.10;99.90;;;;;;5058404;28;20493;-62
2023/08/15 11:55:43;;;;;;;8.67;7.90;;;26.10;99.90;;;;;;5057166;28;21080;-62
2023/08/15 11:58:22;;;;;;;9.47;8.77;;;26.10;99.90;;;;;;5056803;28;20510;-62
2023/08/15 12:00:52;;;;;;;9.83;9.23;;;25.90;99.90;;;;;;5056146;28;20962;-62
2023/08/15 12:03:20;;;;;;;9.53;8.93;;;25.80;99.90;;;;;;5053293;28;20581;-62
2023/08/15 12:05:49;;;;;;;9.73;9.03;;;25.70;99.90;;;;;;5055344;28;20509;-62
2023/08/15 12:08:19;;;;;;;10.23;9.53;;;25.50;99.90;;;;;;5058614;28;20955;-62
2023/08/15 12:10:47;;;;;;;11.07;10.37;;;25.40;99.90;;;;;;5054678;28;20465;-62
2023/08/15 12:13:14;;;;;;;11.90;11.07;;;25.50;99.90;;;;;;5051556;28;20498;-62
2023/08/15 12:15:42;;;;;;;12.57;11.67;;;25.60;99.90;;;;;;5057171;28;20574;-62
2023/08/15 12:18:11;;;;;;;12.33;11.33;;;25.90;99.90;;;;;;5054593;28;20563;-62
2023/08/15 12:20:39;;;;;;;13.70;12.70;;;26.10;99.90;;;;;;5056830;28;20475;-61
2023/08/15 12:23:07;;;;;;;14.03;12.93;;;26.30;99.90;;;;;;5057601;28;20900;-62
2023/08/15 12:25:47;;;;;;;13.20;12.20;;;26.30;99.90;;;;;;5055832;28;20492;-62
2023/08/15 12:28:15;;;;;;;13.60;12.60;;;26.30;99.90;;;;;;5056597;28;20557;-62
2023/08/15 12:30:43;;;;;;;12.67;11.80;;;26.20;99.90;;;;;;5053688;28;20501;-68
2023/08/15 12:33:11;;;;;;;13.73;12.50;;;26.30;99.90;;;;;;5054399;28;20486;-65
2023/08/15 12:35:42;;;;;;;12.60;11.70;;;26.30;99.90;;;;;;5054855;28;20870;-65
2023/08/15 12:38:10;;;;;;;13.30;12.20;;;26.10;99.90;;;;;;5053684;28;20577;-66
2023/08/15 12:40:40;;;;;;;11.73;10.83;;;25.90;99.90;;;;;;5058601;28;20603;-67
2023/08/15 12:43:10;;;;;;;12.87;11.93;;;26.00;99.90;;;;;;5055376;28;20608;-67
2023/08/15 12:45:38;;;;;;;13.33;12.33;;;26.10;99.90;;;;;;5045397;28;20485;-65